Monday, April 27, 2015, 11:42 PM EDT

KIPT, Williamsport-lycoming County

Location: Montoursville, PA, United States Lat: 41.25
Local Time: 11:42 PM EDT ( 3:42 GMT) Lon: -76.917
Time Zone: US/Eastern Elev: 528 ft

Show me the last for .
Show Decoded

2015-04-27 22:54 METAR KIPT 280254Z AUTO 31010G16KT 10SM OVC032 09/02 A2988 RMK AO2 RAB44E54
                 SLP120 P0000 60000 T00890022 51014 =
2015-04-27 21:54 METAR KIPT 280154Z 29010KT 10SM BKN038 OVC048 09/01 A2988 RMK AO2 SLP119
                 T00940011 =
2015-04-27 20:54 METAR KIPT 280054Z 29009KT 10SM FEW048 BKN065 OVC100 09/01 A2986 =
2015-04-27 19:54 METAR KIPT 272354Z 31008KT 10SM OVC049 10/M01 A2984 RMK AO2 SLP106 T01001006
                 10139 20100 52023 =
2015-04-27 18:54 METAR KIPT 272254Z 33009KT 290V360 10SM BKN055 12/01 A2982 =
2015-04-27 17:54 METAR KIPT 272154Z 34012G17KT 10SM FEW050 SCT060 12/01 A2979 RMK AO2 SLP091
                 T01220011 =
2015-04-27 16:54 METAR KIPT 272054Z 29012G16KT 10SM FEW048 BKN060 OVC090 12/01 A2977 RMK AO2
                 SLP083 T01170011 51002 =
2015-04-27 15:54 METAR KIPT 271954Z 30009G15KT 10SM BKN070 OVC080 12/01 A2977 RMK AO2 SLP083
                 T01170006 =
2015-04-27 14:54 METAR KIPT 271854Z 34011KT 10SM OVC075 12/M01 A2977 RMK AO2 SLP084 T01171011 =
2015-04-27 12:54 METAR KIPT 271654Z 29009KT 10SM BKN060 OVC080 13/M01 A2976 RMK AO2 SLP079
                 T01331006 =
2015-04-27 11:54 METAR KIPT 271554Z 32008KT 10SM FEW060 OVC080 12/M01 A2977 RMK AO2 SLP080
                 T01221006 =
2015-04-27 10:54 METAR KIPT 271454Z VRB04KT 10SM SCT043 OVC080 11/01 A2977 RMK AO2 SLP081
                 T01110006 51005 =
2015-04-27 09:54 METAR KIPT 271354Z 35007KT 310V020 10SM FEW042 SCT055 OVC080 11/01 A2977 RMK AO2
                 SLP080 T01060006 =
2015-04-27 08:54 METAR KIPT 271254Z 26007KT 10SM OVC049 09/00 A2976 RMK AO2 SLP079 T00890000 =
2015-04-27 07:54 METAR KIPT 271154Z 25007KT 10SM FEW044 OVC080 08/00 A2975 RMK AO2 SLP077
                 T00830000 10089 20078 53006 =
2015-04-27 06:54 METAR KIPT 271054Z 25004KT 10SM OVC080 08/00 A2974 RMK AO2 SLP074 T00780000 =
2015-04-27 05:54 METAR KIPT 270954Z AUTO 27006KT 10SM FEW065 OVC080 08/00 A2973 RMK AO2 SLP069
                 T00780000 =
2015-04-27 04:54 METAR KIPT 270854Z AUTO 27006KT 10SM OVC085 08/00 A2973 RMK AO2 SLP069 T00780000
                 56005 =
2015-04-27 03:54 METAR KIPT 270754Z AUTO 26005KT 10SM OVC080 08/01 A2974 RMK AO2 SLP070 T00780006
                 =
2015-04-27 02:54 METAR KIPT 270654Z AUTO 28004KT 10SM SCT055 OVC080 08/00 A2974 RMK AO2 SLP070
                 T00830000 =
2015-04-27 01:54 METAR KIPT 270554Z AUTO 26004KT 10SM OVC065 09/00 A2975 RMK AO2 SLP074 T00890000
                 10106 20083 58002 =
2015-04-27 00:54 METAR KIPT 270454Z AUTO 00000KT 10SM OVC065 09/M01 A2976 RMK AO2 SLP076
                 T00941011 401501006 =
2015-04-26 23:54 METAR KIPT 270354Z AUTO 32006KT 10SM OVC070 09/M01 A2976 RMK AO2 SLP077
                 T00941011 =

Support USWX by starting your Amazon purchase here.